createdAt,value
2023-05-10T00:02:25.826Z,21.45
2023-05-10T00:04:53.459Z,19.35
2023-05-10T00:07:20.098Z,20.38
2023-05-10T00:09:46.615Z,20.27
2023-05-10T00:12:13.140Z,20.13
2023-05-10T00:14:39.598Z,26.75
2023-05-10T00:17:06.150Z,24.40
2023-05-10T00:19:33.145Z,24.38
2023-05-10T00:21:59.627Z,23.02
2023-05-10T00:24:26.227Z,21.00
2023-05-10T00:26:53.154Z,17.05
2023-05-10T00:29:20.517Z,26.23
2023-05-10T00:31:47.165Z,22.92
2023-05-10T00:34:13.694Z,27.50
2023-05-10T00:36:40.377Z,24.70
2023-05-10T00:39:07.143Z,24.52
2023-05-10T00:41:33.795Z,24.63
2023-05-10T00:44:00.565Z,29.98
2023-05-10T00:46:27.914Z,24.92
2023-05-10T00:48:54.675Z,32.55
2023-05-10T00:51:21.735Z,28.23
2023-05-10T00:53:50.394Z,30.50
2023-05-10T00:56:17.293Z,24.15
2023-05-10T00:58:44.110Z,25.67
2023-05-10T01:01:11.847Z,28.40
2023-05-10T01:03:38.587Z,24.10
2023-05-10T01:06:05.501Z,31.58
2023-05-10T01:08:32.390Z,27.20
2023-05-10T01:10:59.271Z,25.85
2023-05-10T01:13:36.052Z,23.65
2023-05-10T01:16:05.920Z,27.00
2023-05-10T01:18:35.157Z,30.55
2023-05-10T01:21:28.493Z,32.83
2023-05-10T01:24:33.343Z,34.67
2023-05-10T01:27:14.198Z,25.13
2023-05-10T01:30:14.195Z,26.70
2023-05-10T01:32:46.282Z,20.80
2023-05-10T01:35:38.464Z,22.85
2023-05-10T01:38:31.394Z,25.15
2023-05-10T01:41:18.500Z,22.58
2023-05-10T01:43:58.374Z,23.45
2023-05-10T01:46:42.851Z,25.70
2023-05-10T01:49:16.017Z,22.38
2023-05-10T01:51:53.535Z,29.45
2023-05-10T01:54:22.677Z,30.02
2023-05-10T01:56:56.456Z,25.52
2023-05-10T01:59:25.497Z,27.35
2023-05-10T02:01:53.478Z,17.75
2023-05-10T02:04:23.441Z,24.02
2023-05-10T02:06:52.175Z,19.80
2023-05-10T02:09:20.997Z,27.40
2023-05-10T02:11:50.275Z,21.55
2023-05-10T02:14:17.722Z,27.65
2023-05-10T02:16:45.815Z,31.17
2023-05-10T02:19:13.260Z,28.20
2023-05-10T02:21:41.068Z,25.23
2023-05-10T02:24:09.603Z,20.80
2023-05-10T02:26:37.309Z,26.30
2023-05-10T02:29:05.565Z,23.02
2023-05-10T02:31:34.301Z,22.75
2023-05-10T02:34:02.515Z,21.48
2023-05-10T02:36:30.106Z,34.13
2023-05-10T02:38:57.914Z,27.48
2023-05-10T02:41:26.012Z,20.98
2023-05-10T02:43:58.175Z,23.00
2023-05-10T02:46:24.999Z,21.48
2023-05-10T02:48:51.786Z,29.70
2023-05-10T02:51:20.272Z,20.80
2023-05-10T02:53:49.434Z,29.27
2023-05-10T02:56:26.057Z,31.63
2023-05-10T02:58:53.743Z,27.75
2023-05-10T03:01:20.301Z,28.05
2023-05-10T03:03:46.858Z,25.35
2023-05-10T03:06:13.504Z,29.77
2023-05-10T03:08:40.139Z,25.38
2023-05-10T03:11:15.561Z,22.42
2023-05-10T03:14:03.086Z,29.73
2023-05-10T03:16:36.813Z,30.50
2023-05-10T03:19:13.901Z,23.95
2023-05-10T03:21:44.341Z,22.98
2023-05-10T03:24:13.350Z,25.13
2023-05-10T03:26:41.149Z,18.10
2023-05-10T03:29:09.037Z,14.13
2023-05-10T03:31:35.718Z,11.02
2023-05-10T03:34:02.306Z,12.38
2023-05-10T03:36:29.184Z,17.80
2023-05-10T03:38:55.732Z,16.83
2023-05-10T03:41:22.398Z,14.18
2023-05-10T03:43:48.988Z,21.08
2023-05-10T03:46:15.683Z,15.40
2023-05-10T03:48:42.205Z,14.77
2023-05-10T03:51:08.739Z,18.30
2023-05-10T03:53:35.287Z,25.35
2023-05-10T03:56:01.816Z,22.15
2023-05-10T03:58:28.378Z,22.05
2023-05-10T04:00:55.195Z,17.55
2023-05-10T04:03:21.907Z,19.38
2023-05-10T04:05:48.538Z,23.02
2023-05-10T04:08:17.295Z,18.02
2023-05-10T04:10:43.859Z,22.98
2023-05-10T04:13:10.824Z,19.45
2023-05-10T04:15:37.628Z,15.13
2023-05-10T04:18:06.493Z,14.02
2023-05-10T04:20:34.900Z,20.58
2023-05-10T04:23:01.489Z,22.85
2023-05-10T04:25:28.093Z,26.40
2023-05-10T04:27:55.171Z,16.85
2023-05-10T04:30:21.828Z,18.75
2023-05-10T04:32:48.520Z,21.45
2023-05-10T04:35:15.829Z,20.35
2023-05-10T04:37:42.293Z,27.08
2023-05-10T04:40:09.533Z,22.38
2023-05-10T04:42:36.037Z,13.30
2023-05-10T04:45:02.579Z,23.10
2023-05-10T04:47:29.145Z,17.55
2023-05-10T04:49:55.667Z,18.85
2023-05-10T04:52:22.206Z,18.38
2023-05-10T04:54:48.711Z,17.60
2023-05-10T04:57:15.244Z,27.58
2023-05-10T04:59:41.806Z,14.90
2023-05-10T05:02:08.435Z,17.48
2023-05-10T05:04:35.069Z,20.20
2023-05-10T05:07:01.636Z,19.75
2023-05-10T05:09:28.116Z,16.17
2023-05-10T05:11:55.679Z,19.35
2023-05-10T05:14:22.233Z,20.58
2023-05-10T05:16:48.839Z,16.90
2023-05-10T05:19:15.561Z,16.60
2023-05-10T05:21:42.177Z,23.00
2023-05-10T05:24:09.599Z,16.25
2023-05-10T05:26:36.114Z,24.65
2023-05-10T05:29:02.872Z,22.17
2023-05-10T05:31:29.836Z,24.15
2023-05-10T05:33:56.630Z,23.58
2023-05-10T05:36:23.998Z,20.95
2023-05-10T05:38:50.623Z,25.17
2023-05-10T05:41:17.166Z,19.58
2023-05-10T05:43:43.795Z,17.77
2023-05-10T05:46:10.457Z,17.73
2023-05-10T05:48:37.080Z,19.05
2023-05-10T05:51:05.160Z,21.15
2023-05-10T05:53:33.692Z,20.77
2023-05-10T05:56:00.275Z,16.23
2023-05-10T05:58:26.995Z,14.65
2023-05-10T06:00:54.008Z,25.75
2023-05-10T06:03:21.262Z,19.48
2023-05-10T06:05:48.781Z,23.23
2023-05-10T06:08:15.626Z,19.25
2023-05-10T06:10:42.141Z,27.13
2023-05-10T06:13:08.917Z,22.92
2023-05-10T06:15:36.096Z,28.77
2023-05-10T06:18:02.880Z,20.67
2023-05-10T06:20:29.529Z,24.48
2023-05-10T06:22:56.300Z,23.30
2023-05-10T06:25:22.799Z,34.38
2023-05-10T06:27:53.423Z,25.90
2023-05-10T06:30:21.296Z,24.52
2023-05-10T06:32:48.000Z,34.05
2023-05-10T06:35:14.667Z,22.70
2023-05-10T06:37:41.271Z,21.52
2023-05-10T06:40:08.600Z,25.33
2023-05-10T06:42:35.225Z,22.52
2023-05-10T06:45:01.888Z,25.63
2023-05-10T06:47:28.561Z,24.55
2023-05-10T06:49:55.132Z,30.17
2023-05-10T06:52:21.832Z,20.60
2023-05-10T06:54:48.354Z,22.88
2023-05-10T06:57:27.612Z,25.23
2023-05-10T06:59:57.689Z,22.60
2023-05-10T07:02:24.236Z,26.00
2023-05-10T07:04:52.861Z,24.75
2023-05-10T07:07:20.098Z,19.15
2023-05-10T07:09:47.040Z,23.65
2023-05-10T07:12:15.397Z,19.13
2023-05-10T07:14:43.135Z,27.45
2023-05-10T07:17:09.898Z,24.88
2023-05-10T07:19:36.946Z,23.13
2023-05-10T07:22:03.719Z,16.30
2023-05-10T07:24:30.889Z,18.35
2023-05-10T07:26:57.418Z,17.40
2023-05-10T07:29:24.073Z,22.92
2023-05-10T07:31:50.646Z,18.02
2023-05-10T07:34:17.221Z,15.20
2023-05-10T07:36:43.994Z,17.98
2023-05-10T07:39:12.646Z,18.10
2023-05-10T07:41:40.996Z,23.27
2023-05-10T07:44:07.516Z,27.33
2023-05-10T07:46:34.003Z,19.83
2023-05-10T07:49:00.823Z,25.23
2023-05-10T07:51:27.494Z,20.08
2023-05-10T07:53:53.989Z,18.42
2023-05-10T07:56:27.561Z,21.38
2023-05-10T07:58:55.318Z,42.47
2023-05-10T08:01:21.903Z,18.45
2023-05-10T08:03:48.660Z,24.08
2023-05-10T08:06:16.524Z,21.35
2023-05-10T08:08:43.279Z,17.45
2023-05-10T08:11:10.042Z,24.70
2023-05-10T08:13:36.680Z,27.02
2023-05-10T08:16:03.313Z,30.00
2023-05-10T08:18:29.922Z,23.73
2023-05-10T08:20:56.548Z,21.67
2023-05-10T08:23:23.042Z,15.57
2023-05-10T08:25:49.596Z,20.50
2023-05-10T08:28:16.173Z,17.42
2023-05-10T08:30:42.735Z,18.42
2023-05-10T08:33:09.479Z,19.40
2023-05-10T08:35:36.085Z,22.70
2023-05-10T08:38:02.991Z,23.05
2023-05-10T08:40:29.566Z,20.67
2023-05-10T08:43:04.157Z,15.18
2023-05-10T08:45:34.704Z,26.67
2023-05-10T08:48:03.170Z,18.98
2023-05-10T08:50:31.109Z,21.35
2023-05-10T08:53:02.435Z,16.65
2023-05-10T08:55:31.221Z,19.73
2023-05-10T08:57:57.953Z,15.38
2023-05-10T09:00:24.758Z,19.05
2023-05-10T09:02:51.493Z,15.45
2023-05-10T09:05:18.941Z,19.10
2023-05-10T09:07:45.955Z,11.93
2023-05-10T09:10:14.184Z,14.93
2023-05-10T09:12:41.940Z,13.77
2023-05-10T09:15:10.813Z,18.02
2023-05-10T09:17:38.213Z,22.33
2023-05-10T09:20:05.850Z,17.85
2023-05-10T09:22:32.760Z,13.00
2023-05-10T09:25:09.445Z,20.75
2023-05-10T09:27:36.957Z,15.50
2023-05-10T09:30:06.307Z,16.58
2023-05-10T09:32:43.037Z,11.15
2023-05-10T09:35:14.230Z,15.07
2023-05-10T09:37:42.981Z,12.57
2023-05-10T09:40:17.000Z,16.83
2023-05-10T09:42:52.704Z,9.48
2023-05-10T09:45:19.529Z,15.50
2023-05-10T09:47:47.044Z,14.05
2023-05-10T09:50:13.862Z,15.90
2023-05-10T09:52:52.203Z,10.57
2023-05-10T09:55:20.924Z,6.35
2023-05-10T09:57:49.185Z,13.32
2023-05-10T10:00:20.437Z,17.67
2023-05-10T10:02:49.149Z,19.48
2023-05-10T10:05:16.064Z,16.45
2023-05-10T10:07:43.215Z,14.88
2023-05-10T10:10:13.260Z,12.55
2023-05-10T10:12:41.595Z,16.52
2023-05-10T10:15:09.665Z,14.27
2023-05-10T10:17:39.897Z,8.55
2023-05-10T10:20:10.484Z,10.02
2023-05-10T10:22:38.856Z,9.80
2023-05-10T10:25:06.748Z,11.55
2023-05-10T10:27:59.176Z,19.92
2023-05-10T10:30:32.644Z,14.55
2023-05-10T10:33:36.670Z,10.27
2023-05-10T10:36:05.110Z,12.65
2023-05-10T10:39:01.687Z,10.63
2023-05-10T10:41:36.700Z,7.78
2023-05-10T10:44:40.157Z,7.47
2023-05-10T10:47:19.619Z,11.13
2023-05-10T10:49:52.619Z,13.00
2023-05-10T10:52:23.855Z,7.18
2023-05-10T10:55:10.785Z,10.60
2023-05-10T10:57:45.764Z,10.52
2023-05-10T11:00:32.263Z,7.10
2023-05-10T11:03:18.022Z,11.80
2023-05-10T11:05:48.707Z,8.57
2023-05-10T11:08:31.519Z,19.67
2023-05-10T11:11:01.196Z,10.48
2023-05-10T11:13:32.912Z,13.02
2023-05-10T11:16:10.696Z,16.50
2023-05-10T11:18:38.064Z,22.17
2023-05-10T11:21:06.226Z,14.63
2023-05-10T11:23:48.278Z,18.92
2023-05-10T11:26:15.322Z,15.15
2023-05-10T11:28:46.453Z,17.10
2023-05-10T11:31:20.755Z,12.65
2023-05-10T11:36:29.510Z,18.42
2023-05-10T11:38:57.720Z,16.98
2023-05-10T11:41:25.462Z,15.35
2023-05-10T11:43:56.492Z,12.43
2023-05-10T11:46:25.641Z,12.00
2023-05-10T11:48:58.340Z,16.13
2023-05-10T11:51:26.292Z,9.88
2023-05-10T11:53:57.412Z,10.45
2023-05-10T11:56:24.719Z,12.50
2023-05-10T11:58:56.796Z,13.38
2023-05-10T12:01:24.796Z,8.65
2023-05-10T12:03:52.598Z,3.95
2023-05-10T12:06:22.673Z,13.30
2023-05-10T12:08:53.484Z,6.55
2023-05-10T12:11:22.743Z,7.32
2023-05-10T12:13:50.868Z,7.85
2023-05-10T12:16:19.655Z,8.32
2023-05-10T12:18:49.485Z,5.15
2023-05-10T12:21:16.585Z,8.85
2023-05-10T12:23:43.424Z,6.63
2023-05-10T12:26:11.219Z,8.27
2023-05-10T12:28:38.775Z,8.52
2023-05-10T12:31:07.109Z,8.88
2023-05-10T12:33:39.924Z,14.57
2023-05-10T12:36:07.745Z,8.23
2023-05-10T12:38:35.517Z,9.00
2023-05-10T12:41:04.618Z,12.48
2023-05-10T12:43:31.786Z,19.58
2023-05-10T12:45:58.402Z,6.82
2023-05-10T12:48:25.016Z,10.38
2023-05-10T12:50:51.712Z,6.70
2023-05-10T12:53:18.208Z,8.10
2023-05-10T12:55:45.418Z,9.88
2023-05-10T12:58:15.836Z,11.02
2023-05-10T13:00:48.059Z,7.10
2023-05-10T13:03:14.635Z,5.90
2023-05-10T13:05:41.179Z,6.85
2023-05-10T13:08:07.773Z,4.60
2023-05-10T13:10:34.280Z,5.47
2023-05-10T13:13:00.992Z,4.95
2023-05-10T13:15:27.712Z,5.03
2023-05-10T13:17:54.838Z,4.68
2023-05-10T13:20:21.619Z,4.97
2023-05-10T13:22:50.543Z,7.80
2023-05-10T13:25:18.075Z,4.68
2023-05-10T13:27:44.860Z,5.15
2023-05-10T13:30:12.347Z,8.90
2023-05-10T13:32:39.457Z,9.40
2023-05-10T13:35:06.758Z,6.22
2023-05-10T13:37:36.443Z,7.97
2023-05-10T13:40:03.003Z,5.22
2023-05-10T13:42:29.485Z,6.07
2023-05-10T13:44:56.045Z,7.80
2023-05-10T13:47:23.398Z,7.88
2023-05-10T13:49:50.489Z,3.78
2023-05-10T13:52:17.067Z,4.57
2023-05-10T13:54:43.646Z,3.35
2023-05-10T13:57:10.145Z,9.65
2023-05-10T13:59:36.598Z,5.85
2023-05-10T14:02:03.488Z,13.77
2023-05-10T14:04:30.712Z,10.65
2023-05-10T14:06:58.180Z,9.35
2023-05-10T14:09:24.673Z,11.48
2023-05-10T14:11:52.125Z,4.55
2023-05-10T14:14:18.592Z,7.38
2023-05-10T14:16:45.792Z,8.40
2023-05-10T14:19:12.913Z,5.15
2023-05-10T14:21:39.473Z,7.47
2023-05-10T14:24:07.654Z,10.77
2023-05-10T14:26:35.334Z,5.03
2023-05-10T14:29:01.979Z,9.57
2023-05-10T14:31:28.642Z,8.05
2023-05-10T14:33:55.179Z,10.25
2023-05-10T14:36:21.712Z,4.88
2023-05-10T14:38:48.551Z,9.55
2023-05-10T14:41:17.212Z,5.88
2023-05-10T14:43:43.907Z,4.95
2023-05-10T14:46:10.894Z,5.05
2023-05-10T14:48:37.464Z,6.03
2023-05-10T14:51:04.627Z,6.68
2023-05-10T14:53:31.212Z,10.02
2023-05-10T14:55:58.378Z,4.10
2023-05-10T14:58:25.115Z,8.00
2023-05-10T15:00:52.057Z,9.20
2023-05-10T15:03:19.150Z,10.95
2023-05-10T15:05:46.007Z,5.13
2023-05-10T15:08:13.516Z,7.40
2023-05-10T15:10:40.877Z,6.15
2023-05-10T15:13:07.363Z,9.10
2023-05-10T15:15:33.924Z,6.00
2023-05-10T15:18:00.573Z,8.20
2023-05-10T15:20:27.089Z,7.43
2023-05-10T15:22:53.625Z,5.95
2023-05-10T15:25:21.033Z,7.43
2023-05-10T15:27:47.555Z,6.55
2023-05-10T15:30:14.326Z,4.97
2023-05-10T15:32:41.611Z,3.90
2023-05-10T15:35:11.457Z,4.80
2023-05-10T15:37:38.553Z,3.60
2023-05-10T15:40:05.661Z,3.30
2023-05-10T15:42:32.801Z,3.45
2023-05-10T15:44:59.881Z,3.60
2023-05-10T15:47:28.682Z,7.72
2023-05-10T15:49:55.202Z,5.65
2023-05-10T15:52:21.922Z,6.55
2023-05-10T15:54:48.437Z,4.15
2023-05-10T15:57:14.978Z,3.63
2023-05-10T15:59:41.708Z,8.40
2023-05-10T16:02:10.808Z,9.38
2023-05-10T16:04:37.835Z,10.85
2023-05-10T16:07:04.401Z,10.52
2023-05-10T16:09:31.445Z,9.77
2023-05-10T16:11:58.898Z,8.10
2023-05-10T16:14:25.439Z,10.25
2023-05-10T16:16:52.308Z,12.68
2023-05-10T16:19:21.133Z,4.30
2023-05-10T16:21:49.939Z,6.20
2023-05-10T16:24:18.985Z,5.03
2023-05-10T16:26:46.089Z,7.20
2023-05-10T16:29:12.601Z,4.20
2023-05-10T16:31:39.476Z,4.72
2023-05-10T16:34:07.828Z,5.18
2023-05-10T16:36:35.276Z,5.80
2023-05-10T16:39:02.725Z,8.43
2023-05-10T16:41:29.604Z,7.53
2023-05-10T16:43:57.596Z,5.72
2023-05-10T16:46:24.504Z,7.75
2023-05-10T16:48:51.179Z,6.28
2023-05-10T16:51:17.880Z,4.15
2023-05-10T16:53:44.403Z,7.43
2023-05-10T16:56:11.287Z,8.98
2023-05-10T16:58:37.898Z,8.32
2023-05-10T17:01:05.181Z,7.13
2023-05-10T17:03:31.839Z,3.65
2023-05-10T17:05:59.424Z,6.43
2023-05-10T17:08:26.072Z,7.05
2023-05-10T17:10:52.616Z,6.00
2023-05-10T17:13:19.240Z,5.88
2023-05-10T17:15:47.338Z,8.32
2023-05-10T17:18:14.009Z,8.68
2023-05-10T17:20:43.307Z,7.35
2023-05-10T17:23:09.860Z,8.43
2023-05-10T17:25:36.848Z,5.82
2023-05-10T17:28:04.041Z,7.72
2023-05-10T17:30:32.738Z,7.03
2023-05-10T17:33:01.094Z,6.45
2023-05-10T17:35:27.942Z,6.57
2023-05-10T17:37:54.509Z,11.90
2023-05-10T17:40:21.222Z,7.85
2023-05-10T17:42:47.767Z,5.82
2023-05-10T17:45:15.251Z,7.10
2023-05-10T17:47:42.147Z,14.10
2023-05-10T17:50:10.103Z,8.77
2023-05-10T17:52:36.599Z,10.57
2023-05-10T17:55:03.261Z,2.78
2023-05-10T17:57:29.898Z,8.07
2023-05-10T17:59:56.623Z,5.22
2023-05-10T18:02:23.198Z,5.38
2023-05-10T18:04:49.887Z,9.70
2023-05-10T18:07:16.645Z,10.02
2023-05-10T18:09:43.254Z,3.83
2023-05-10T18:12:09.772Z,3.83
2023-05-10T18:14:41.178Z,9.48
2023-05-10T18:17:08.790Z,5.35
2023-05-10T18:19:35.459Z,6.20
2023-05-10T18:22:01.999Z,6.35
2023-05-10T18:24:38.213Z,5.47
2023-05-10T18:27:08.827Z,4.50
2023-05-10T18:29:36.282Z,6.28
2023-05-10T18:32:03.025Z,5.22
2023-05-10T18:34:30.083Z,5.95
2023-05-10T18:36:57.096Z,7.45
2023-05-10T18:39:24.341Z,7.85
2023-05-10T18:41:51.356Z,4.03
2023-05-10T18:44:19.112Z,5.20
2023-05-10T18:46:46.365Z,7.60
2023-05-10T18:49:16.409Z,5.07
2023-05-10T18:51:43.388Z,10.07
2023-05-10T18:54:10.168Z,11.82
2023-05-10T18:56:37.338Z,9.05
2023-05-10T18:59:04.019Z,7.15
2023-05-10T19:01:30.902Z,12.88
2023-05-10T19:03:57.834Z,9.20
2023-05-10T19:06:24.397Z,7.85
2023-05-10T19:08:50.924Z,6.35
2023-05-10T19:11:17.593Z,17.58
2023-05-10T19:13:46.352Z,12.25
2023-05-10T19:16:16.680Z,14.05
2023-05-10T19:18:46.690Z,6.50
2023-05-10T19:21:13.299Z,6.32
2023-05-10T19:23:42.078Z,14.77
2023-05-10T19:26:09.538Z,11.65
2023-05-10T19:28:36.701Z,8.65
2023-05-10T19:31:03.747Z,11.73
2023-05-10T19:33:30.512Z,8.25
2023-05-10T19:35:57.054Z,8.95
2023-05-10T19:38:24.365Z,10.20
2023-05-10T19:40:57.528Z,14.40
2023-05-10T19:43:28.895Z,8.38
2023-05-10T19:45:58.899Z,9.80
2023-05-10T19:48:25.894Z,11.25
2023-05-10T19:50:53.464Z,9.98
2023-05-10T19:53:20.415Z,12.65
2023-05-10T19:55:46.998Z,10.27
2023-05-10T19:58:13.574Z,8.95
2023-05-10T20:00:40.167Z,6.18
2023-05-10T20:03:09.132Z,8.55
2023-05-10T20:05:36.039Z,11.50
2023-05-10T20:08:02.685Z,5.75
2023-05-10T20:10:29.421Z,9.07
2023-05-10T20:12:55.991Z,7.03
2023-05-10T20:15:23.596Z,11.77
2023-05-10T20:17:53.308Z,6.18
2023-05-10T20:20:20.565Z,7.13
2023-05-10T20:22:48.656Z,14.63
2023-05-10T20:25:16.495Z,12.52
2023-05-10T20:27:43.276Z,8.57
2023-05-10T20:30:10.514Z,10.65
2023-05-10T20:32:37.821Z,7.53
2023-05-10T20:35:05.273Z,9.23
2023-05-10T20:37:31.956Z,14.30
2023-05-10T20:39:58.748Z,10.63
2023-05-10T20:42:25.424Z,12.15
2023-05-10T20:44:52.221Z,6.38
2023-05-10T20:47:19.058Z,8.10
2023-05-10T20:49:46.039Z,6.47
2023-05-10T20:52:13.073Z,5.38
2023-05-10T20:54:39.598Z,11.07
2023-05-10T20:57:06.388Z,6.88
2023-05-10T20:59:33.062Z,6.15
2023-05-10T21:01:59.604Z,11.35
2023-05-10T21:04:26.193Z,6.85
2023-05-10T21:06:53.353Z,12.27
2023-05-10T21:09:19.986Z,9.48
2023-05-10T21:11:46.685Z,10.20
2023-05-10T21:14:13.881Z,9.15
2023-05-10T21:16:41.227Z,5.57
2023-05-10T21:19:07.979Z,4.57
2023-05-10T21:21:34.933Z,5.90
2023-05-10T21:24:01.576Z,5.95
2023-05-10T21:26:28.695Z,7.90
2023-05-10T21:28:55.517Z,8.48
2023-05-10T21:31:22.114Z,7.60
2023-05-10T21:33:48.847Z,11.75
2023-05-10T21:36:15.442Z,14.95
2023-05-10T21:38:44.687Z,9.15
2023-05-10T21:41:11.372Z,11.00
2023-05-10T21:43:38.022Z,11.48
2023-05-10T21:46:04.786Z,10.20
2023-05-10T21:48:31.429Z,11.43
2023-05-10T21:50:58.006Z,8.68
2023-05-10T21:53:24.912Z,10.40
2023-05-10T21:55:51.511Z,9.00
2023-05-10T21:58:18.197Z,10.57
2023-05-10T22:00:44.948Z,12.18
2023-05-10T22:03:11.683Z,6.82
2023-05-10T22:05:38.693Z,7.85
2023-05-10T22:08:06.399Z,13.27
2023-05-10T22:10:33.006Z,8.13
2023-05-10T22:13:00.210Z,12.48
2023-05-10T22:15:27.168Z,10.95
2023-05-10T22:17:53.880Z,4.95
2023-05-10T22:20:21.112Z,10.68
2023-05-10T22:22:48.061Z,10.23
2023-05-10T22:25:14.664Z,14.57
2023-05-10T22:27:47.048Z,8.15
2023-05-10T22:30:13.703Z,10.88
2023-05-10T22:32:40.293Z,10.70
2023-05-10T22:35:07.675Z,14.07
2023-05-10T22:37:34.211Z,8.30
2023-05-10T22:40:00.783Z,18.38
2023-05-10T22:42:27.312Z,17.25
2023-05-10T22:44:53.838Z,14.38
2023-05-10T22:47:20.646Z,17.67
2023-05-10T22:49:47.630Z,8.88
2023-05-10T22:52:14.163Z,13.75
2023-05-10T22:54:40.698Z,7.65
2023-05-10T22:57:07.385Z,10.25
2023-05-10T22:59:34.240Z,16.75
2023-05-10T23:02:00.828Z,9.40
2023-05-10T23:04:27.468Z,12.18
2023-05-10T23:06:54.099Z,14.30
2023-05-10T23:09:20.647Z,9.13
2023-05-10T23:11:47.403Z,14.43
2023-05-10T23:14:13.912Z,10.98
2023-05-10T23:16:40.682Z,15.88
2023-05-10T23:19:07.435Z,13.48
2023-05-10T23:21:34.525Z,14.20
2023-05-10T23:24:01.482Z,16.58
2023-05-10T23:26:28.039Z,13.25
2023-05-10T23:28:54.649Z,15.25
2023-05-10T23:31:21.673Z,10.93
2023-05-10T23:33:48.188Z,17.00
2023-05-10T23:36:14.759Z,10.48
2023-05-10T23:38:41.364Z,11.98
2023-05-10T23:41:07.881Z,28.50
2023-05-10T23:43:34.422Z,13.85
2023-05-10T23:46:01.726Z,13.52
2023-05-10T23:48:28.416Z,11.18
2023-05-10T23:50:55.003Z,10.02
2023-05-10T23:53:21.852Z,20.42
2023-05-10T23:55:48.557Z,12.48
2023-05-10T23:58:15.132Z,18.73
